createdAt,value
2023-02-03T00:01:43.961Z,102216.13
2023-02-03T00:06:45.887Z,102225.63
2023-02-03T00:11:50.047Z,102238.56
2023-02-03T00:16:51.487Z,102242.69
2023-02-03T00:21:54.948Z,102243.13
2023-02-03T00:26:56.384Z,102250.84
2023-02-03T00:31:58.983Z,102266.88
2023-02-03T00:37:00.509Z,102256.81
2023-02-03T00:42:01.928Z,102274.13
2023-02-03T00:47:03.521Z,102270.75
2023-02-03T00:52:05.141Z,102270.75
2023-02-03T00:57:06.470Z,102265.84
2023-02-03T01:02:07.951Z,102257.81
2023-02-03T01:07:10.037Z,102254.78
2023-02-03T01:12:11.418Z,102264.06
2023-02-03T01:17:12.767Z,102242.66
2023-02-03T01:22:14.148Z,102246.69
2023-02-03T01:27:15.526Z,102247.69
2023-02-03T01:32:19.915Z,102244.19
2023-02-03T01:37:21.398Z,102230.66
2023-02-03T01:42:22.769Z,102228.72
2023-02-03T01:47:46.468Z,102211.28
2023-02-03T01:52:52.608Z,102202.50
2023-02-03T01:58:03.799Z,102204.38
2023-02-03T02:03:07.169Z,102209.25
2023-02-03T02:08:09.458Z,102203.63
2023-02-03T02:13:12.479Z,102197.59
2023-02-03T02:18:54.307Z,102186.41
2023-02-03T02:23:55.580Z,102194.38
2023-02-03T02:29:34.194Z,102193.56
2023-02-03T02:34:58.074Z,102214.75
2023-02-03T02:40:27.806Z,102218.44
2023-02-03T02:45:45.055Z,102201.34
2023-02-03T02:50:49.476Z,102183.47
2023-02-03T02:55:53.569Z,102204.91
2023-02-03T03:00:54.931Z,102170.66
2023-02-03T03:06:01.598Z,102156.03
2023-02-03T03:11:03.405Z,102163.03
2023-02-03T03:16:09.170Z,102166.56
2023-02-03T03:21:16.260Z,102168.09
2023-02-03T03:26:28.752Z,102176.69
2023-02-03T03:31:30.717Z,102187.16
2023-02-03T03:36:48.329Z,102180.47
2023-02-03T03:41:56.299Z,102206.59
2023-02-03T03:47:14.333Z,102191.78
2023-02-03T03:52:21.714Z,102197.09
2023-02-03T03:57:31.872Z,102182.59
2023-02-03T04:02:35.030Z,102203.84
2023-02-03T04:07:43.109Z,102201.22
2023-02-03T04:12:44.611Z,102194.38
2023-02-03T04:17:46.026Z,102213.50
2023-02-03T04:22:47.423Z,102190.03
2023-02-03T04:27:49.076Z,102202.25
2023-02-03T04:32:50.526Z,102215.13
2023-02-03T04:37:51.901Z,102191.78
2023-02-03T04:42:53.367Z,102178.03
2023-02-03T04:47:54.872Z,102183.47
2023-02-03T04:52:58.761Z,102183.25
2023-02-03T04:58:01.005Z,102183.63
2023-02-03T05:03:02.408Z,102188.25
2023-02-03T05:08:03.943Z,102183.81
2023-02-03T05:13:05.311Z,102188.84
2023-02-03T05:18:06.862Z,102183.47
2023-02-03T05:23:08.234Z,102174.22
2023-02-03T05:28:09.681Z,102187.91
2023-02-03T05:33:11.084Z,102190.19
2023-02-03T05:38:12.504Z,102192.78
2023-02-03T05:43:13.935Z,102172.94
2023-02-03T05:48:15.344Z,102184.28
2023-02-03T05:53:16.748Z,102189.88
2023-02-03T05:58:18.127Z,102194.25
2023-02-03T06:03:19.591Z,102192.44
2023-02-03T06:08:20.949Z,102192.44
2023-02-03T06:13:22.332Z,102182.97
2023-02-03T06:18:23.695Z,102176.88
2023-02-03T06:23:25.214Z,102183.72
2023-02-03T06:28:27.137Z,102187.09
2023-02-03T06:33:35.925Z,102190.56
2023-02-03T06:38:37.607Z,102193.63
2023-02-03T06:43:39.133Z,102220.34
2023-02-03T06:48:40.508Z,102224.47
2023-02-03T06:53:41.852Z,102219.19
2023-02-03T06:58:44.826Z,102207.91
2023-02-03T07:03:46.991Z,102229.47
2023-02-03T07:08:48.397Z,102237.09
2023-02-03T07:13:51.681Z,102232.75
2023-02-03T07:18:54.230Z,102243.31
2023-02-03T07:23:56.029Z,102241.38
2023-02-03T07:29:00.349Z,102245.88
2023-02-03T07:34:05.152Z,102245.06
2023-02-03T07:39:06.608Z,102236.38
2023-02-03T07:44:09.459Z,102237.41
2023-02-03T07:49:15.332Z,102241.91
2023-02-03T07:54:18.828Z,102232.34
2023-02-03T07:59:20.282Z,102246.03
2023-02-03T08:04:22.848Z,102246.47
2023-02-03T08:09:24.320Z,102255.25
2023-02-03T08:14:25.739Z,102271.88
2023-02-03T08:19:27.665Z,102265.56
2023-02-03T08:24:29.508Z,102280.44
2023-02-03T08:29:32.240Z,102282.19
2023-02-03T08:34:34.204Z,102286.22
2023-02-03T08:39:36.020Z,102278.59
2023-02-03T08:44:39.132Z,102282.88
2023-02-03T08:49:40.973Z,102279.09
2023-02-03T08:54:43.666Z,102299.06
2023-02-03T08:59:48.856Z,102303.97
2023-02-03T09:04:53.019Z,102300.13
2023-02-03T09:09:54.741Z,102308.00
2023-02-03T09:14:56.178Z,102313.25
2023-02-03T09:19:57.767Z,102312.56
2023-02-03T09:25:01.435Z,102297.16
2023-02-03T09:30:03.444Z,102310.25
2023-02-03T09:35:05.329Z,102311.59
2023-02-03T09:40:07.377Z,102311.97
2023-02-03T09:45:24.571Z,102312.41
2023-02-03T09:50:30.274Z,102310.38
2023-02-03T09:55:45.148Z,102328.00
2023-02-03T10:01:11.740Z,102330.47
2023-02-03T10:06:31.555Z,102341.91
2023-02-03T10:11:38.982Z,102338.50
2023-02-03T10:17:04.724Z,102339.31
2023-02-03T10:22:15.315Z,102335.81
2023-02-03T10:27:21.168Z,102347.63
2023-02-03T10:32:26.278Z,102342.56
2023-02-03T10:37:33.779Z,102346.22
2023-02-03T10:42:56.945Z,102346.84
2023-02-03T10:47:59.582Z,102358.38
2023-02-03T10:53:24.620Z,102371.06
2023-02-03T10:58:29.287Z,102364.31
2023-02-03T11:03:33.268Z,102355.25
2023-02-03T11:08:37.624Z,102360.63
2023-02-03T11:13:40.340Z,102359.09
2023-02-03T11:18:44.275Z,102361.88
2023-02-03T11:23:53.948Z,102367.38
2023-02-03T11:29:21.165Z,102378.72
2023-02-03T11:34:31.859Z,102366.81
2023-02-03T11:39:37.466Z,102368.84
2023-02-03T11:44:41.086Z,102364.66
2023-02-03T11:50:14.569Z,102389.09
2023-02-03T11:55:46.933Z,102368.78
2023-02-03T12:01:22.755Z,102369.78
2023-02-03T12:06:37.177Z,102352.56
2023-02-03T12:11:53.546Z,102360.88
2023-02-03T12:17:12.842Z,102373.75
2023-02-03T12:22:22.999Z,102388.16
2023-02-03T12:27:44.586Z,102400.00
2023-02-03T12:32:54.206Z,102411.09
2023-02-03T12:38:07.420Z,102418.69
2023-02-03T12:43:21.325Z,102429.63
2023-02-03T12:48:29.380Z,102416.81
2023-02-03T12:53:35.726Z,102438.34
2023-02-03T12:58:41.907Z,102457.66
2023-02-03T13:03:52.737Z,102463.63
2023-02-03T13:09:05.843Z,102461.25
2023-02-03T13:14:29.161Z,102470.91
2023-02-03T13:19:42.232Z,102476.88
2023-02-03T13:24:51.353Z,102465.03
2023-02-03T13:30:20.287Z,102464.34
2023-02-03T13:35:40.320Z,102471.44
2023-02-03T13:41:11.363Z,102469.88
2023-02-03T13:46:27.497Z,102459.47
2023-02-03T13:51:38.155Z,102459.53
2023-02-03T13:56:39.991Z,102462.13
2023-02-03T14:01:42.676Z,102461.25
2023-02-03T14:06:45.567Z,102464.81
2023-02-03T14:11:50.639Z,102453.50
2023-02-03T14:16:55.200Z,102468.16
2023-02-03T14:22:08.491Z,102483.81
2023-02-03T14:27:22.895Z,102495.00
2023-02-03T14:32:24.328Z,102517.28
2023-02-03T14:37:29.111Z,102518.16
2023-02-03T14:42:49.391Z,102530.31
2023-02-03T14:48:26.187Z,102528.53
2023-02-03T14:53:45.579Z,102538.03
2023-02-03T14:58:51.850Z,102540.25
2023-02-03T15:04:11.314Z,102526.94
2023-02-03T15:09:37.696Z,102532.97
2023-02-03T15:14:39.155Z,102526.75
2023-02-03T15:19:42.699Z,102522.34
2023-02-03T15:24:44.136Z,102522.25
2023-02-03T15:29:45.544Z,102521.38
2023-02-03T15:34:49.368Z,102520.25
2023-02-03T15:40:07.054Z,102536.44
2023-02-03T15:45:28.620Z,102545.63
2023-02-03T15:50:39.506Z,102552.22
2023-02-03T15:55:47.859Z,102563.28
2023-02-03T16:00:53.410Z,102573.50
2023-02-03T16:05:55.348Z,102578.63
2023-02-03T16:10:56.854Z,102581.72
2023-02-03T16:16:16.211Z,102587.28
2023-02-03T16:21:31.932Z,102583.00
2023-02-03T16:26:36.608Z,102594.75
2023-02-03T16:32:02.019Z,102602.22
2023-02-03T16:38:01.962Z,102613.06
2023-02-03T16:43:22.833Z,102621.06
2023-02-03T16:48:43.251Z,102629.59
2023-02-03T16:53:48.287Z,102631.09
2023-02-03T16:58:52.469Z,102639.84
2023-02-03T17:03:53.912Z,102643.31
2023-02-03T17:08:57.761Z,102643.66
2023-02-03T17:14:02.168Z,102655.75
2023-02-03T17:19:03.594Z,102657.34
2023-02-03T17:24:05.563Z,102666.22
2023-02-03T17:29:07.046Z,102676.72
2023-02-03T17:34:08.512Z,102694.41
2023-02-03T17:55:07.893Z,102721.81
2023-02-03T18:00:10.613Z,102730.25
2023-02-03T18:05:12.176Z,102740.28
2023-02-03T18:10:15.102Z,102749.47
2023-02-03T18:15:19.526Z,102755.16
2023-02-03T18:20:22.388Z,102760.94
2023-02-03T18:25:23.879Z,102761.63
2023-02-03T18:30:25.378Z,102769.25
2023-02-03T18:35:27.000Z,102784.41
2023-02-03T18:40:29.292Z,102795.78
2023-02-03T18:45:34.353Z,102803.81
2023-02-03T18:50:42.721Z,102810.84
2023-02-03T18:55:44.662Z,102809.75
2023-02-03T19:00:46.118Z,102817.78
2023-02-03T19:05:47.672Z,102810.56
2023-02-03T19:10:54.071Z,102807.56
2023-02-03T19:15:55.588Z,102805.50
2023-02-03T19:20:57.109Z,102813.06
2023-02-03T19:25:58.806Z,102827.84
2023-02-03T19:31:14.457Z,102830.78
2023-02-03T19:36:15.956Z,102829.16
2023-02-03T19:41:17.359Z,102842.03
2023-02-03T19:46:23.742Z,102852.81
2023-02-03T19:51:25.189Z,102846.88
2023-02-03T19:56:26.749Z,102863.06
2023-02-03T20:01:29.638Z,102871.88
2023-02-03T20:06:33.907Z,102858.22
2023-02-03T20:11:35.683Z,102872.88
2023-02-03T20:16:37.123Z,102881.16
2023-02-03T20:21:38.521Z,102876.03
2023-02-03T20:26:40.483Z,102881.25
2023-02-03T20:31:42.032Z,102884.25
2023-02-03T20:36:45.662Z,102895.63
2023-02-03T20:41:49.783Z,102900.56
2023-02-03T20:46:58.333Z,102900.78
2023-02-03T20:52:00.055Z,102908.38
2023-02-03T20:57:01.969Z,102902.47
2023-02-03T21:02:10.952Z,102912.56
2023-02-03T21:07:19.076Z,102899.47
2023-02-03T21:12:20.852Z,102903.72
2023-02-03T21:17:25.783Z,102914.19
2023-02-03T21:22:30.296Z,102913.13
2023-02-03T21:27:35.893Z,102915.81
2023-02-03T21:32:39.483Z,102911.34
2023-02-03T21:37:41.581Z,102922.25
2023-02-03T21:42:43.075Z,102931.75
2023-02-03T21:47:48.359Z,102937.19
2023-02-03T21:52:49.857Z,102939.75
2023-02-03T21:57:54.241Z,102939.16
2023-02-03T22:02:59.530Z,102946.22
2023-02-03T22:08:13.932Z,102950.25
2023-02-03T22:13:16.440Z,102960.56
2023-02-03T22:18:17.959Z,102967.31
2023-02-03T22:23:19.829Z,102978.09
2023-02-03T22:28:21.319Z,102984.91
2023-02-03T22:33:22.996Z,102973.13
2023-02-03T22:38:24.516Z,102978.47
2023-02-03T22:43:26.539Z,102989.66
2023-02-03T22:48:29.761Z,102998.66
2023-02-03T22:53:31.349Z,103005.25
2023-02-03T22:58:32.999Z,103007.47
2023-02-03T23:03:34.698Z,103017.63
2023-02-03T23:08:37.966Z,103012.41
2023-02-03T23:13:39.384Z,103018.16
2023-02-03T23:18:40.783Z,103011.41
2023-02-03T23:23:42.360Z,103017.94
2023-02-03T23:28:43.921Z,103022.50
2023-02-03T23:34:05.297Z,103019.44
2023-02-03T23:39:07.358Z,103022.59
2023-02-03T23:44:09.342Z,103027.03
2023-02-03T23:49:10.752Z,103041.19
2023-02-03T23:54:12.545Z,103047.34
2023-02-03T23:59:13.938Z,103050.28
